sensor_id;sensor_type;location;lat;lon;timestamp;P1;durP1;ratioP1;P2;durP2;ratioP2
63534;SDS011;55128;50.230;18.944;2024-01-25T00:02:28;8.45;;;2.10;;
63534;SDS011;55128;50.230;18.944;2024-01-25T00:07:28;8.70;;;2.60;;
63534;SDS011;55128;50.230;18.944;2024-01-25T00:12:29;7.35;;;2.28;;
63534;SDS011;55128;50.230;18.944;2024-01-25T00:17:29;6.85;;;2.08;;
63534;SDS011;55128;50.230;18.944;2024-01-25T00:22:30;7.17;;;1.77;;
63534;SDS011;55128;50.230;18.944;2024-01-25T00:27:30;8.10;;;2.35;;
63534;SDS011;55128;50.230;18.944;2024-01-25T00:32:30;7.67;;;2.40;;
63534;SDS011;55128;50.230;18.944;2024-01-25T00:37:31;7.47;;;1.75;;
63534;SDS011;55128;50.230;18.944;2024-01-25T00:42:31;10.60;;;2.40;;
63534;SDS011;55128;50.230;18.944;2024-01-25T00:47:40;12.73;;;2.70;;
63534;SDS011;55128;50.230;18.944;2024-01-25T00:52:41;7.22;;;2.38;;
63534;SDS011;55128;50.230;18.944;2024-01-25T00:57:42;8.45;;;1.98;;
63534;SDS011;55128;50.230;18.944;2024-01-25T01:02:43;9.15;;;1.92;;
63534;SDS011;55128;50.230;18.944;2024-01-25T01:07:44;9.50;;;2.50;;
63534;SDS011;55128;50.230;18.944;2024-01-25T01:12:45;7.05;;;1.45;;
63534;SDS011;55128;50.230;18.944;2024-01-25T01:17:45;5.18;;;1.60;;
63534;SDS011;55128;50.230;18.944;2024-01-25T01:22:45;5.30;;;1.40;;
63534;SDS011;55128;50.230;18.944;2024-01-25T01:27:46;5.53;;;1.63;;
63534;SDS011;55128;50.230;18.944;2024-01-25T01:32:46;5.88;;;1.48;;
63534;SDS011;55128;50.230;18.944;2024-01-25T01:37:47;9.77;;;1.60;;
63534;SDS011;55128;50.230;18.944;2024-01-25T01:42:47;6.60;;;2.00;;
63534;SDS011;55128;50.230;18.944;2024-01-25T01:47:47;4.80;;;1.47;;
63534;SDS011;55128;50.230;18.944;2024-01-25T01:52:48;7.60;;;1.58;;
63534;SDS011;55128;50.230;18.944;2024-01-25T01:57:50;5.55;;;1.48;;
63534;SDS011;55128;50.230;18.944;2024-01-25T02:02:51;6.10;;;1.38;;
63534;SDS011;55128;50.230;18.944;2024-01-25T02:07:51;7.45;;;1.70;;
63534;SDS011;55128;50.230;18.944;2024-01-25T02:12:52;7.70;;;1.77;;
63534;SDS011;55128;50.230;18.944;2024-01-25T02:17:53;8.25;;;1.30;;
63534;SDS011;55128;50.230;18.944;2024-01-25T02:22:53;5.57;;;1.20;;
63534;SDS011;55128;50.230;18.944;2024-01-25T02:27:55;6.43;;;1.30;;
63534;SDS011;55128;50.230;18.944;2024-01-25T02:32:55;5.40;;;1.30;;
63534;SDS011;55128;50.230;18.944;2024-01-25T02:37:56;10.30;;;2.05;;
63534;SDS011;55128;50.230;18.944;2024-01-25T02:42:56;7.60;;;1.55;;
63534;SDS011;55128;50.230;18.944;2024-01-25T02:47:57;8.77;;;1.90;;
63534;SDS011;55128;50.230;18.944;2024-01-25T02:52:58;7.78;;;1.52;;
63534;SDS011;55128;50.230;18.944;2024-01-25T02:57:58;7.63;;;1.30;;
63534;SDS011;55128;50.230;18.944;2024-01-25T03:02:58;7.50;;;1.50;;
63534;SDS011;55128;50.230;18.944;2024-01-25T03:07:59;4.70;;;1.50;;
63534;SDS011;55128;50.230;18.944;2024-01-25T03:12:59;9.77;;;1.60;;
63534;SDS011;55128;50.230;18.944;2024-01-25T03:18:00;4.32;;;1.42;;
63534;SDS011;55128;50.230;18.944;2024-01-25T03:23:00;8.43;;;1.55;;
63534;SDS011;55128;50.230;18.944;2024-01-25T03:28:01;7.00;;;1.42;;
63534;SDS011;55128;50.230;18.944;2024-01-25T03:33:02;8.73;;;1.80;;
63534;SDS011;55128;50.230;18.944;2024-01-25T03:38:02;6.30;;;1.42;;
63534;SDS011;55128;50.230;18.944;2024-01-25T03:43:03;6.68;;;1.30;;
63534;SDS011;55128;50.230;18.944;2024-01-25T03:48:04;8.75;;;1.48;;
63534;SDS011;55128;50.230;18.944;2024-01-25T03:53:04;5.95;;;2.17;;
63534;SDS011;55128;50.230;18.944;2024-01-25T03:58:06;7.88;;;1.65;;
63534;SDS011;55128;50.230;18.944;2024-01-25T04:03:07;7.65;;;1.40;;
63534;SDS011;55128;50.230;18.944;2024-01-25T04:08:07;7.35;;;1.90;;
63534;SDS011;55128;50.230;18.944;2024-01-25T04:13:08;7.45;;;1.42;;
63534;SDS011;55128;50.230;18.944;2024-01-25T04:18:08;6.63;;;1.42;;
63534;SDS011;55128;50.230;18.944;2024-01-25T04:23:09;8.35;;;1.98;;
63534;SDS011;55128;50.230;18.944;2024-01-25T04:28:09;7.78;;;1.50;;
63534;SDS011;55128;50.230;18.944;2024-01-25T04:33:10;6.35;;;1.60;;
63534;SDS011;55128;50.230;18.944;2024-01-25T04:38:10;6.90;;;2.28;;
63534;SDS011;55128;50.230;18.944;2024-01-25T04:43:10;7.88;;;1.60;;
63534;SDS011;55128;50.230;18.944;2024-01-25T04:48:11;8.95;;;1.88;;
63534;SDS011;55128;50.230;18.944;2024-01-25T04:53:12;8.07;;;1.95;;
63534;SDS011;55128;50.230;18.944;2024-01-25T04:58:12;7.70;;;1.60;;
63534;SDS011;55128;50.230;18.944;2024-01-25T05:03:13;5.97;;;1.27;;
63534;SDS011;55128;50.230;18.944;2024-01-25T05:08:13;7.18;;;1.83;;
63534;SDS011;55128;50.230;18.944;2024-01-25T05:13:14;6.47;;;1.58;;
63534;SDS011;55128;50.230;18.944;2024-01-25T05:18:14;8.75;;;2.25;;
63534;SDS011;55128;50.230;18.944;2024-01-25T05:23:15;6.70;;;1.77;;
63534;SDS011;55128;50.230;18.944;2024-01-25T05:28:15;10.98;;;2.08;;
63534;SDS011;55128;50.230;18.944;2024-01-25T05:33:16;8.50;;;1.88;;
63534;SDS011;55128;50.230;18.944;2024-01-25T05:38:16;6.07;;;1.65;;
63534;SDS011;55128;50.230;18.944;2024-01-25T05:43:17;8.98;;;2.30;;
63534;SDS011;55128;50.230;18.944;2024-01-25T05:48:18;8.75;;;3.90;;
63534;SDS011;55128;50.230;18.944;2024-01-25T05:53:18;9.15;;;4.13;;
63534;SDS011;55128;50.230;18.944;2024-01-25T05:58:20;8.10;;;1.90;;
63534;SDS011;55128;50.230;18.944;2024-01-25T06:03:20;9.98;;;2.00;;
63534;SDS011;55128;50.230;18.944;2024-01-25T06:08:20;9.55;;;2.33;;
63534;SDS011;55128;50.230;18.944;2024-01-25T06:13:21;9.45;;;2.80;;
63534;SDS011;55128;50.230;18.944;2024-01-25T06:18:21;13.90;;;2.97;;
63534;SDS011;55128;50.230;18.944;2024-01-25T06:23:22;8.18;;;2.33;;
63534;SDS011;55128;50.230;18.944;2024-01-25T06:28:22;8.05;;;2.60;;
63534;SDS011;55128;50.230;18.944;2024-01-25T06:33:23;8.13;;;2.35;;
63534;SDS011;55128;50.230;18.944;2024-01-25T06:38:23;8.00;;;2.33;;
63534;SDS011;55128;50.230;18.944;2024-01-25T06:43:23;6.57;;;2.13;;
63534;SDS011;55128;50.230;18.944;2024-01-25T06:48:24;8.73;;;2.45;;
63534;SDS011;55128;50.230;18.944;2024-01-25T06:53:24;12.48;;;3.13;;
63534;SDS011;55128;50.230;18.944;2024-01-25T06:58:25;13.88;;;3.45;;
63534;SDS011;55128;50.230;18.944;2024-01-25T07:03:25;9.80;;;2.00;;
63534;SDS011;55128;50.230;18.944;2024-01-25T07:08:26;6.25;;;2.20;;
63534;SDS011;55128;50.230;18.944;2024-01-25T07:13:26;9.23;;;2.20;;
63534;SDS011;55128;50.230;18.944;2024-01-25T07:18:27;7.82;;;2.67;;
63534;SDS011;55128;50.230;18.944;2024-01-25T07:23:29;6.70;;;1.50;;
63534;SDS011;55128;50.230;18.944;2024-01-25T07:28:30;6.80;;;1.45;;
63534;SDS011;55128;50.230;18.944;2024-01-25T07:33:30;8.05;;;2.17;;
63534;SDS011;55128;50.230;18.944;2024-01-25T07:38:31;9.88;;;1.92;;
63534;SDS011;55128;50.230;18.944;2024-01-25T07:43:31;7.32;;;1.52;;
63534;SDS011;55128;50.230;18.944;2024-01-25T07:48:32;5.78;;;1.55;;
63534;SDS011;55128;50.230;18.944;2024-01-25T07:53:32;12.10;;;1.85;;
63534;SDS011;55128;50.230;18.944;2024-01-25T07:58:33;6.80;;;1.90;;
63534;SDS011;55128;50.230;18.944;2024-01-25T08:03:34;8.73;;;1.67;;
63534;SDS011;55128;50.230;18.944;2024-01-25T08:08:35;12.00;;;2.03;;
63534;SDS011;55128;50.230;18.944;2024-01-25T08:13:35;8.10;;;2.05;;
63534;SDS011;55128;50.230;18.944;2024-01-25T08:18:35;7.20;;;1.88;;
63534;SDS011;55128;50.230;18.944;2024-01-25T08:23:36;10.95;;;2.08;;
63534;SDS011;55128;50.230;18.944;2024-01-25T08:28:37;11.00;;;2.25;;
63534;SDS011;55128;50.230;18.944;2024-01-25T08:33:43;9.93;;;1.98;;
63534;SDS011;55128;50.230;18.944;2024-01-25T08:38:47;7.88;;;1.52;;
63534;SDS011;55128;50.230;18.944;2024-01-25T08:43:47;11.13;;;2.08;;
63534;SDS011;55128;50.230;18.944;2024-01-25T08:48:48;7.20;;;1.65;;
63534;SDS011;55128;50.230;18.944;2024-01-25T08:53:48;8.48;;;2.28;;
63534;SDS011;55128;50.230;18.944;2024-01-25T08:58:50;14.70;;;2.95;;
63534;SDS011;55128;50.230;18.944;2024-01-25T09:03:52;8.43;;;2.58;;
63534;SDS011;55128;50.230;18.944;2024-01-25T09:08:52;9.63;;;2.67;;
63534;SDS011;55128;50.230;18.944;2024-01-25T09:13:53;11.45;;;2.13;;
63534;SDS011;55128;50.230;18.944;2024-01-25T09:18:53;8.18;;;1.92;;
63534;SDS011;55128;50.230;18.944;2024-01-25T09:23:54;8.02;;;2.08;;
63534;SDS011;55128;50.230;18.944;2024-01-25T09:28:54;10.68;;;2.25;;
63534;SDS011;55128;50.230;18.944;2024-01-25T09:33:55;13.38;;;2.00;;
63534;SDS011;55128;50.230;18.944;2024-01-25T09:38:55;5.40;;;2.10;;
63534;SDS011;55128;50.230;18.944;2024-01-25T09:43:55;9.93;;;2.22;;
63534;SDS011;55128;50.230;18.944;2024-01-25T09:48:56;12.05;;;2.67;;
63534;SDS011;55128;50.230;18.944;2024-01-25T09:53:56;8.40;;;2.00;;
63534;SDS011;55128;50.230;18.944;2024-01-25T09:59:00;11.75;;;2.50;;
63534;SDS011;55128;50.230;18.944;2024-01-25T10:04:01;8.68;;;2.20;;
63534;SDS011;55128;50.230;18.944;2024-01-25T10:09:01;11.05;;;2.58;;
63534;SDS011;55128;50.230;18.944;2024-01-25T10:14:03;10.73;;;2.10;;
63534;SDS011;55128;50.230;18.944;2024-01-25T10:19:06;11.02;;;2.25;;
63534;SDS011;55128;50.230;18.944;2024-01-25T10:24:07;9.93;;;2.13;;
63534;SDS011;55128;50.230;18.944;2024-01-25T10:29:09;11.00;;;2.45;;
63534;SDS011;55128;50.230;18.944;2024-01-25T10:34:11;9.50;;;2.10;;
63534;SDS011;55128;50.230;18.944;2024-01-25T10:39:13;10.80;;;2.10;;
63534;SDS011;55128;50.230;18.944;2024-01-25T10:44:14;8.50;;;2.00;;
63534;SDS011;55128;50.230;18.944;2024-01-25T10:49:16;10.45;;;2.35;;
63534;SDS011;55128;50.230;18.944;2024-01-25T10:54:17;12.32;;;3.03;;
63534;SDS011;55128;50.230;18.944;2024-01-25T10:59:18;11.05;;;2.67;;
63534;SDS011;55128;50.230;18.944;2024-01-25T11:04:19;12.80;;;1.98;;
63534;SDS011;55128;50.230;18.944;2024-01-25T11:09:20;5.85;;;1.52;;
63534;SDS011;55128;50.230;18.944;2024-01-25T11:14:21;9.50;;;2.20;;
63534;SDS011;55128;50.230;18.944;2024-01-25T11:19:21;7.45;;;2.15;;
63534;SDS011;55128;50.230;18.944;2024-01-25T11:24:23;9.48;;;1.80;;
63534;SDS011;55128;50.230;18.944;2024-01-25T11:29:26;10.03;;;2.17;;
63534;SDS011;55128;50.230;18.944;2024-01-25T11:34:27;10.38;;;2.13;;
63534;SDS011;55128;50.230;18.944;2024-01-25T11:39:27;10.82;;;2.08;;
63534;SDS011;55128;50.230;18.944;2024-01-25T11:44:28;7.70;;;2.10;;
63534;SDS011;55128;50.230;18.944;2024-01-25T11:49:29;9.88;;;2.15;;
63534;SDS011;55128;50.230;18.944;2024-01-25T11:54:30;7.40;;;2.63;;
63534;SDS011;55128;50.230;18.944;2024-01-25T11:59:30;10.77;;;1.98;;
63534;SDS011;55128;50.230;18.944;2024-01-25T12:04:30;8.98;;;2.22;;
63534;SDS011;55128;50.230;18.944;2024-01-25T12:09:31;10.45;;;1.92;;
63534;SDS011;55128;50.230;18.944;2024-01-25T12:14:31;8.10;;;2.00;;
63534;SDS011;55128;50.230;18.944;2024-01-25T12:19:32;10.32;;;2.58;;
63534;SDS011;55128;50.230;18.944;2024-01-25T12:24:33;10.85;;;2.20;;
63534;SDS011;55128;50.230;18.944;2024-01-25T12:29:33;10.13;;;2.20;;
63534;SDS011;55128;50.230;18.944;2024-01-25T12:34:33;10.00;;;2.33;;
63534;SDS011;55128;50.230;18.944;2024-01-25T12:39:34;13.18;;;2.10;;
63534;SDS011;55128;50.230;18.944;2024-01-25T12:44:34;9.95;;;2.45;;
63534;SDS011;55128;50.230;18.944;2024-01-25T12:49:35;9.05;;;2.13;;
63534;SDS011;55128;50.230;18.944;2024-01-25T12:54:35;12.90;;;2.33;;
63534;SDS011;55128;50.230;18.944;2024-01-25T12:59:36;12.07;;;1.95;;
63534;SDS011;55128;50.230;18.944;2024-01-25T13:04:38;13.43;;;3.65;;
63534;SDS011;55128;50.230;18.944;2024-01-25T13:09:38;11.57;;;2.42;;
63534;SDS011;55128;50.230;18.944;2024-01-25T13:14:38;7.50;;;2.20;;
63534;SDS011;55128;50.230;18.944;2024-01-25T13:19:39;9.10;;;1.70;;
63534;SDS011;55128;50.230;18.944;2024-01-25T13:24:39;7.13;;;2.40;;
63534;SDS011;55128;50.230;18.944;2024-01-25T13:29:40;10.20;;;2.20;;
63534;SDS011;55128;50.230;18.944;2024-01-25T13:34:40;9.48;;;2.28;;
63534;SDS011;55128;50.230;18.944;2024-01-25T13:39:41;10.18;;;2.17;;
63534;SDS011;55128;50.230;18.944;2024-01-25T13:44:41;7.45;;;2.25;;
63534;SDS011;55128;50.230;18.944;2024-01-25T13:49:41;9.38;;;2.30;;
63534;SDS011;55128;50.230;18.944;2024-01-25T13:54:42;7.82;;;2.22;;
63534;SDS011;55128;50.230;18.944;2024-01-25T13:59:42;9.25;;;2.60;;
63534;SDS011;55128;50.230;18.944;2024-01-25T14:04:43;13.60;;;3.55;;
63534;SDS011;55128;50.230;18.944;2024-01-25T14:09:43;9.40;;;2.70;;
63534;SDS011;55128;50.230;18.944;2024-01-25T14:14:44;10.50;;;3.90;;
63534;SDS011;55128;50.230;18.944;2024-01-25T14:19:44;11.10;;;2.78;;
63534;SDS011;55128;50.230;18.944;2024-01-25T14:24:46;9.23;;;1.90;;
63534;SDS011;55128;50.230;18.944;2024-01-25T14:29:47;9.23;;;2.78;;
63534;SDS011;55128;50.230;18.944;2024-01-25T14:34:47;11.20;;;3.25;;
63534;SDS011;55128;50.230;18.944;2024-01-25T14:39:48;10.65;;;2.55;;
63534;SDS011;55128;50.230;18.944;2024-01-25T14:44:48;8.93;;;2.17;;
63534;SDS011;55128;50.230;18.944;2024-01-25T14:49:49;9.02;;;2.40;;
63534;SDS011;55128;50.230;18.944;2024-01-25T14:54:51;12.40;;;3.00;;
63534;SDS011;55128;50.230;18.944;2024-01-25T14:59:52;8.82;;;2.38;;
63534;SDS011;55128;50.230;18.944;2024-01-25T15:04:52;9.80;;;2.70;;
63534;SDS011;55128;50.230;18.944;2024-01-25T15:09:53;10.45;;;2.53;;
63534;SDS011;55128;50.230;18.944;2024-01-25T15:14:53;10.43;;;2.10;;
63534;SDS011;55128;50.230;18.944;2024-01-25T15:19:54;10.25;;;3.08;;
63534;SDS011;55128;50.230;18.944;2024-01-25T15:24:54;11.55;;;2.42;;
63534;SDS011;55128;50.230;18.944;2024-01-25T15:29:55;9.10;;;2.72;;
63534;SDS011;55128;50.230;18.944;2024-01-25T15:34:55;9.82;;;2.35;;
63534;SDS011;55128;50.230;18.944;2024-01-25T15:39:55;12.90;;;2.42;;
63534;SDS011;55128;50.230;18.944;2024-01-25T15:44:56;13.02;;;2.33;;
63534;SDS011;55128;50.230;18.944;2024-01-25T15:49:56;10.13;;;2.08;;
63534;SDS011;55128;50.230;18.944;2024-01-25T15:54:57;9.10;;;1.88;;
63534;SDS011;55128;50.230;18.944;2024-01-25T15:59:58;10.35;;;2.53;;
63534;SDS011;55128;50.230;18.944;2024-01-25T16:04:59;14.80;;;2.65;;
63534;SDS011;55128;50.230;18.944;2024-01-25T16:10:00;10.23;;;2.28;;
63534;SDS011;55128;50.230;18.944;2024-01-25T16:15:00;9.48;;;2.10;;
63534;SDS011;55128;50.230;18.944;2024-01-25T16:20:00;8.45;;;2.50;;
63534;SDS011;55128;50.230;18.944;2024-01-25T16:25:03;9.43;;;2.40;;
63534;SDS011;55128;50.230;18.944;2024-01-25T16:30:05;11.00;;;2.55;;
63534;SDS011;55128;50.230;18.944;2024-01-25T16:35:09;9.27;;;2.50;;
63534;SDS011;55128;50.230;18.944;2024-01-25T16:40:10;13.68;;;3.47;;
63534;SDS011;55128;50.230;18.944;2024-01-25T16:45:11;11.23;;;3.05;;
63534;SDS011;55128;50.230;18.944;2024-01-25T16:50:11;12.30;;;3.22;;
63534;SDS011;55128;50.230;18.944;2024-01-25T16:55:13;10.52;;;3.33;;
63534;SDS011;55128;50.230;18.944;2024-01-25T17:00:14;11.07;;;2.83;;
63534;SDS011;55128;50.230;18.944;2024-01-25T17:05:15;10.60;;;2.85;;
63534;SDS011;55128;50.230;18.944;2024-01-25T17:10:18;11.83;;;2.87;;
63534;SDS011;55128;50.230;18.944;2024-01-25T17:15:20;14.80;;;3.33;;
63534;SDS011;55128;50.230;18.944;2024-01-25T17:20:20;14.40;;;4.57;;
63534;SDS011;55128;50.230;18.944;2024-01-25T17:25:20;13.45;;;4.47;;
63534;SDS011;55128;50.230;18.944;2024-01-25T17:30:21;13.32;;;3.17;;
63534;SDS011;55128;50.230;18.944;2024-01-25T17:35:21;13.18;;;3.28;;
63534;SDS011;55128;50.230;18.944;2024-01-25T17:40:22;10.38;;;3.50;;
63534;SDS011;55128;50.230;18.944;2024-01-25T17:45:23;8.82;;;2.78;;
63534;SDS011;55128;50.230;18.944;2024-01-25T17:50:24;12.63;;;4.18;;
63534;SDS011;55128;50.230;18.944;2024-01-25T17:55:24;12.77;;;4.20;;
63534;SDS011;55128;50.230;18.944;2024-01-25T18:00:25;15.48;;;4.03;;
63534;SDS011;55128;50.230;18.944;2024-01-25T18:05:25;14.25;;;3.83;;
63534;SDS011;55128;50.230;18.944;2024-01-25T18:10:28;17.92;;;4.72;;
63534;SDS011;55128;50.230;18.944;2024-01-25T18:15:29;14.52;;;3.63;;
63534;SDS011;55128;50.230;18.944;2024-01-25T18:20:29;14.13;;;3.72;;
63534;SDS011;55128;50.230;18.944;2024-01-25T18:25:30;11.13;;;3.50;;
63534;SDS011;55128;50.230;18.944;2024-01-25T18:30:30;13.88;;;3.47;;
63534;SDS011;55128;50.230;18.944;2024-01-25T18:35:30;12.60;;;3.45;;
63534;SDS011;55128;50.230;18.944;2024-01-25T18:40:31;13.18;;;4.38;;
63534;SDS011;55128;50.230;18.944;2024-01-25T18:45:32;15.45;;;3.92;;
63534;SDS011;55128;50.230;18.944;2024-01-25T18:50:32;18.13;;;4.20;;
63534;SDS011;55128;50.230;18.944;2024-01-25T18:55:33;10.65;;;3.50;;
63534;SDS011;55128;50.230;18.944;2024-01-25T19:00:35;12.98;;;3.50;;
63534;SDS011;55128;50.230;18.944;2024-01-25T19:05:36;11.82;;;4.03;;
63534;SDS011;55128;50.230;18.944;2024-01-25T19:10:38;16.23;;;4.57;;
63534;SDS011;55128;50.230;18.944;2024-01-25T19:15:38;13.77;;;4.88;;
63534;SDS011;55128;50.230;18.944;2024-01-25T19:20:39;15.05;;;4.20;;
63534;SDS011;55128;50.230;18.944;2024-01-25T19:25:41;15.30;;;4.30;;
63534;SDS011;55128;50.230;18.944;2024-01-25T19:30:42;16.02;;;5.20;;
63534;SDS011;55128;50.230;18.944;2024-01-25T19:35:42;20.80;;;4.53;;
63534;SDS011;55128;50.230;18.944;2024-01-25T19:40:49;16.35;;;5.43;;
63534;SDS011;55128;50.230;18.944;2024-01-25T19:45:49;13.82;;;4.63;;
63534;SDS011;55128;50.230;18.944;2024-01-25T19:50:50;17.20;;;4.07;;
63534;SDS011;55128;50.230;18.944;2024-01-25T19:55:51;14.70;;;3.72;;
63534;SDS011;55128;50.230;18.944;2024-01-25T20:00:52;15.40;;;4.10;;
63534;SDS011;55128;50.230;18.944;2024-01-25T20:05:53;12.52;;;4.25;;
63534;SDS011;55128;50.230;18.944;2024-01-25T20:10:55;17.00;;;4.30;;
63534;SDS011;55128;50.230;18.944;2024-01-25T20:15:55;15.00;;;4.32;;
63534;SDS011;55128;50.230;18.944;2024-01-25T20:20:56;12.43;;;3.78;;
63534;SDS011;55128;50.230;18.944;2024-01-25T20:25:56;13.00;;;4.10;;
63534;SDS011;55128;50.230;18.944;2024-01-25T20:30:57;14.38;;;4.07;;
63534;SDS011;55128;50.230;18.944;2024-01-25T20:35:57;12.93;;;4.25;;
63534;SDS011;55128;50.230;18.944;2024-01-25T20:40:58;14.95;;;4.63;;
63534;SDS011;55128;50.230;18.944;2024-01-25T20:45:58;16.15;;;4.25;;
63534;SDS011;55128;50.230;18.944;2024-01-25T20:50:58;16.25;;;4.15;;
63534;SDS011;55128;50.230;18.944;2024-01-25T20:55:59;14.82;;;4.47;;
63534;SDS011;55128;50.230;18.944;2024-01-25T21:00:59;16.52;;;4.18;;
63534;SDS011;55128;50.230;18.944;2024-01-25T21:06:00;15.68;;;4.32;;
63534;SDS011;55128;50.230;18.944;2024-01-25T21:11:01;15.93;;;5.00;;
63534;SDS011;55128;50.230;18.944;2024-01-25T21:16:02;20.45;;;4.65;;
63534;SDS011;55128;50.230;18.944;2024-01-25T21:21:03;15.63;;;4.13;;
63534;SDS011;55128;50.230;18.944;2024-01-25T21:26:04;14.27;;;4.68;;
63534;SDS011;55128;50.230;18.944;2024-01-25T21:31:04;15.40;;;3.92;;
63534;SDS011;55128;50.230;18.944;2024-01-25T21:36:05;17.75;;;4.65;;
63534;SDS011;55128;50.230;18.944;2024-01-25T21:41:05;13.32;;;4.43;;
63534;SDS011;55128;50.230;18.944;2024-01-25T21:46:07;17.02;;;4.43;;
63534;SDS011;55128;50.230;18.944;2024-01-25T21:51:09;15.93;;;4.70;;
63534;SDS011;55128;50.230;18.944;2024-01-25T21:56:10;15.73;;;4.35;;
63534;SDS011;55128;50.230;18.944;2024-01-25T22:01:10;19.95;;;3.92;;
63534;SDS011;55128;50.230;18.944;2024-01-25T22:06:11;18.63;;;4.53;;
63534;SDS011;55128;50.230;18.944;2024-01-25T22:11:11;13.05;;;4.05;;
63534;SDS011;55128;50.230;18.944;2024-01-25T22:16:11;14.13;;;3.97;;
63534;SDS011;55128;50.230;18.944;2024-01-25T22:21:12;14.18;;;4.15;;
63534;SDS011;55128;50.230;18.944;2024-01-25T22:26:13;13.57;;;3.80;;
63534;SDS011;55128;50.230;18.944;2024-01-25T22:31:13;18.70;;;5.38;;
63534;SDS011;55128;50.230;18.944;2024-01-25T22:36:14;13.70;;;4.60;;
63534;SDS011;55128;50.230;18.944;2024-01-25T22:41:14;15.85;;;4.70;;
63534;SDS011;55128;50.230;18.944;2024-01-25T22:46:15;14.85;;;4.72;;
63534;SDS011;55128;50.230;18.944;2024-01-25T22:51:15;15.25;;;4.22;;
63534;SDS011;55128;50.230;18.944;2024-01-25T22:56:16;13.05;;;4.05;;
63534;SDS011;55128;50.230;18.944;2024-01-25T23:01:16;16.10;;;4.68;;
63534;SDS011;55128;50.230;18.944;2024-01-25T23:06:17;14.23;;;4.38;;
63534;SDS011;55128;50.230;18.944;2024-01-25T23:11:17;15.57;;;4.85;;
63534;SDS011;55128;50.230;18.944;2024-01-25T23:16:18;14.35;;;5.13;;
63534;SDS011;55128;50.230;18.944;2024-01-25T23:21:18;11.90;;;5.05;;
63534;SDS011;55128;50.230;18.944;2024-01-25T23:26:18;16.42;;;6.43;;
63534;SDS011;55128;50.230;18.944;2024-01-25T23:31:19;14.77;;;4.88;;
63534;SDS011;55128;50.230;18.944;2024-01-25T23:36:19;17.65;;;5.68;;
63534;SDS011;55128;50.230;18.944;2024-01-25T23:41:20;12.43;;;5.10;;
63534;SDS011;55128;50.230;18.944;2024-01-25T23:46:20;16.55;;;5.57;;
63534;SDS011;55128;50.230;18.944;2024-01-25T23:51:21;15.25;;;4.80;;
63534;SDS011;55128;50.230;18.944;2024-01-25T23:56:21;15.85;;;5.78;;
